This is the latest recevied weather packets stored in our database for station/object N5MDT. If no packets are shown the sender has not sent any weather packets the latest 10 day(s).
| Time | Temp. | Humidity | Pressure | Rain* | Wind** | Luminosity | Snow |
|---|---|---|---|---|---|---|---|
| 1777339108 | 29.44° C | 73% | 1011.9 hPa | 0 mm | - | - | - |
| 1777338508 | 29.44° C | 72% | 1011.6 hPa | 0 mm | - | - | - |
| 1777337908 | 29.44° C | 72% | 1011.5 hPa | 0 mm | - | - | - |
| 1777337308 | 29.44° C | 71% | 1011.5 hPa | 0 mm | - | - | - |
| 1777336708 | 30° C | 71% | 1011.4 hPa | 0 mm | - | - | - |
| 1777328307 | 31.67° C | 68% | 1010.8 hPa | 0 mm | - | - | - |
| 1777312704 | 30° C | 75% | 1012 hPa | 0 mm | - | - | - |
| 1777311504 | 29.44° C | 76% | 1012.2 hPa | 0 mm | - | - | - |
| 1777310903 | 29.44° C | 76% | 1012.3 hPa | 0 mm | - | - | - |
| 1777310304 | 29.44° C | 76% | 1012.3 hPa | 0 mm | - | - | - |
| 1777308504 | 28.89° C | 78% | 1012.2 hPa | 0 mm | - | - | - |
| 1777305503 | 28.33° C | 79% | 1012 hPa | 0 mm | - | - | - |
| 1777304303 | 27.78° C | 80% | 1011.8 hPa | 0 mm | - | - | - |
| 1777303703 | 27.78° C | 81% | 1011.7 hPa | 0 mm | - | - | - |
| 1777300702 | 26.67° C | 84% | 1011.6 hPa | 0 mm | - | - | - |
| 1777300102 | 26.67° C | 84% | 1011.5 hPa | 0 mm | - | - | - |
| 1777299502 | 26.11° C | 85% | 1011.4 hPa | 0 mm | - | - | - |
| 1777298302 | 26.11° C | 86% | 1011.6 hPa | 0 mm | - | - | - |
| 1777296502 | 25.56° C | 86% | 1011.4 hPa | 0 mm | - | - | - |
| 1777295302 | 25.56° C | 86% | 1011.1 hPa | 0 mm | - | - | - |
| 1777294701 | 25.56° C | 86% | 1011.2 hPa | 0 mm | - | - | - |
| 1777292901 | 25.56° C | 85% | 1010.7 hPa | 0 mm | - | - | - |
| 1777292301 | 25.56° C | 86% | 1010.8 hPa | 0 mm | - | - | - |
| 1777291701 | 25.56° C | 85% | 1010.2 hPa | 0 mm | - | - | - |
| 1777290501 | 25.56° C | 85% | 1009.9 hPa | 0 mm | - | - | - |
* Rain latest hour (hover to see other rain measurements)
** Current wind speed in m/s (hover to see current wind gust speed)